Time;durP1;ratioP1;P1;durP2;ratioP2;P2;SDS_P1;SDS_P2;PMS_P1;PMS_P2;Temp;Humidity;BMP_temperature;BMP_pressure;BME280_temperature;BME280_humidity;BME280_pressure;Samples;Min_cycle;Max_cycle;Signal;HPM_P1;HPM_P2
2021/07/19 00:01:56;;;;;;;9.60;6.20;;;19.20;99.90;;;;;;4023223;29;20171;-84
2021/07/19 00:03:58;;;;;;;8.10;6.25;;;19.20;99.90;;;;;;4022964;29;20762;-84
2021/07/19 00:05:58;;;;;;;8.70;5.95;;;19.30;99.90;;;;;;4007049;29;20273;-85
2021/07/19 00:07:59;;;;;;;9.65;6.15;;;19.30;99.90;;;;;;4022855;29;20186;-84
2021/07/19 00:10:00;;;;;;;8.27;5.40;;;19.30;99.90;;;;;;4007710;29;20220;-84
2021/07/19 00:12:02;;;;;;;11.48;6.28;;;19.30;99.90;;;;;;4023490;29;20188;-84
2021/07/19 00:14:03;;;;;;;9.20;5.18;;;19.30;99.90;;;;;;4022974;29;20198;-84
2021/07/19 00:16:05;;;;;;;9.75;5.43;;;19.30;99.90;;;;;;4007550;29;20241;-84
2021/07/19 00:18:05;;;;;;;6.65;4.72;;;19.30;99.90;;;;;;4007745;29;20223;-84
2021/07/19 00:20:07;;;;;;;7.20;5.05;;;19.40;99.90;;;;;;4007651;29;20617;-84
2021/07/19 00:22:08;;;;;;;9.43;5.03;;;19.30;99.90;;;;;;4022736;29;20201;-84
2021/07/19 00:24:09;;;;;;;8.50;5.75;;;19.40;99.90;;;;;;4007473;29;20541;-84
2021/07/19 00:26:09;;;;;;;7.35;5.03;;;19.40;99.90;;;;;;4022640;29;20624;-84
2021/07/19 00:28:10;;;;;;;7.50;5.88;;;19.40;99.90;;;;;;4022611;29;20230;-84
2021/07/19 00:30:14;;;;;;;11.40;5.80;;;19.30;99.90;;;;;;4022584;29;20604;-84
2021/07/19 00:32:14;;;;;;;13.63;5.78;;;19.30;99.90;;;;;;4022676;29;20174;-84
2021/07/19 00:34:15;;;;;;;12.30;6.63;;;19.20;99.90;;;;;;4022500;29;20198;-84
2021/07/19 00:36:16;;;;;;;6.90;5.55;;;19.10;99.90;;;;;;4022646;29;20229;-84
2021/07/19 00:38:17;;;;;;;6.38;5.63;;;19.10;99.90;;;;;;4022647;29;20568;-84
2021/07/19 00:40:21;;;;;;;9.13;5.85;;;19.00;99.90;;;;;;4022489;29;20262;-84
2021/07/19 00:42:23;;;;;;;13.30;5.50;;;19.10;99.90;;;;;;4022466;29;20644;-84
2021/07/19 00:44:24;;;;;;;7.65;5.50;;;19.00;99.90;;;;;;4022348;29;20226;-84
2021/07/19 00:46:25;;;;;;;11.18;6.25;;;19.00;99.90;;;;;;4007128;29;20205;-84
2021/07/19 00:48:26;;;;;;;8.95;6.03;;;19.00;99.90;;;;;;4007189;29;20242;-84
2021/07/19 00:50:30;;;;;;;11.20;6.10;;;19.00;99.90;;;;;;4022239;29;20540;-84
2021/07/19 00:52:31;;;;;;;7.45;6.03;;;19.10;99.90;;;;;;4022713;29;20219;-84
2021/07/19 00:54:33;;;;;;;10.35;6.50;;;19.00;99.90;;;;;;4022422;29;20190;-84
2021/07/19 00:56:35;;;;;;;10.95;6.35;;;18.80;99.90;;;;;;4007123;29;20711;-84
2021/07/19 00:58:38;;;;;;;8.98;6.22;;;18.60;99.90;;;;;;4022305;29;20186;-84
2021/07/19 01:00:46;;;;;;;10.48;6.70;;;18.40;99.90;;;;;;4007025;29;20185;-84
2021/07/19 01:02:51;;;;;;;9.60;6.45;;;18.40;99.90;;;;;;4022273;29;20623;-84
2021/07/19 01:04:53;;;;;;;10.07;6.80;;;18.40;99.90;;;;;;4006693;29;20203;-84
2021/07/19 01:07:00;;;;;;;11.75;6.60;;;18.40;99.90;;;;;;4007161;29;20231;-84
2021/07/19 01:09:04;;;;;;;11.85;6.63;;;18.50;99.90;;;;;;4022001;29;20182;-84
2021/07/19 01:11:05;;;;;;;11.27;7.32;;;18.60;99.90;;;;;;4022288;29;20630;-84
2021/07/19 01:13:07;;;;;;;10.15;7.55;;;18.80;99.90;;;;;;4022196;29;20197;-85
2021/07/19 01:15:08;;;;;;;12.98;7.88;;;18.70;99.90;;;;;;4022129;29;20621;-84
2021/07/19 01:17:11;;;;;;;12.80;7.45;;;18.80;99.90;;;;;;4021659;29;20229;-84
2021/07/19 01:19:13;;;;;;;16.38;8.13;;;18.80;99.90;;;;;;4006901;29;20178;-84
2021/07/19 01:21:24;;;;;;;21.88;7.88;;;18.80;99.90;;;;;;4022008;29;20190;-84
2021/07/19 01:23:44;;;;;;;9.25;7.35;;;18.80;99.90;;;;;;4021637;29;20178;-84
2021/07/19 01:25:49;;;;;;;11.82;8.00;;;18.60;99.90;;;;;;4006770;29;20222;-84
2021/07/19 01:28:12;;;;;;;11.95;7.55;;;18.40;99.90;;;;;;4006845;29;20194;-84
2021/07/19 01:30:13;;;;;;;12.13;7.53;;;18.30;99.90;;;;;;4021780;29;20178;-84
2021/07/19 01:32:14;;;;;;;10.23;7.38;;;18.40;99.90;;;;;;4021935;29;20174;-86
2021/07/19 01:34:23;;;;;;;12.23;7.65;;;18.40;99.90;;;;;;4021654;29;20206;-84
2021/07/19 01:36:29;;;;;;;13.50;8.38;;;18.40;99.90;;;;;;4021601;29;20213;-84
2021/07/19 01:38:54;;;;;;;11.35;7.18;;;18.40;99.90;;;;;;4021580;29;20327;-84
2021/07/19 01:40:57;;;;;;;11.20;7.70;;;18.50;99.90;;;;;;4021820;29;20580;-84
2021/07/19 01:43:00;;;;;;;11.38;7.53;;;18.60;99.90;;;;;;4021865;29;20209;-84
2021/07/19 01:45:04;;;;;;;10.13;7.70;;;18.60;99.90;;;;;;4021702;29;20221;-84
2021/07/19 01:47:08;;;;;;;12.68;8.30;;;18.50;99.90;;;;;;4021685;29;20277;-84
2021/07/19 01:49:13;;;;;;;12.77;8.73;;;18.60;99.90;;;;;;4021669;29;20658;-84
2021/07/19 01:51:14;;;;;;;12.93;9.10;;;18.70;99.90;;;;;;4006336;29;20190;-84
2021/07/19 01:53:30;;;;;;;14.18;8.95;;;18.70;99.90;;;;;;4021727;29;20177;-84
2021/07/19 01:55:33;;;;;;;16.00;7.53;;;18.50;99.90;;;;;;4021582;29;20201;-84
2021/07/19 01:57:35;;;;;;;14.93;7.82;;;18.20;99.90;;;;;;4021222;29;20217;-84
2021/07/19 01:59:37;;;;;;;11.13;7.63;;;18.00;99.90;;;;;;4021576;29;20182;-84
2021/07/19 02:01:55;;;;;;;15.50;7.45;;;17.80;99.90;;;;;;4021446;29;20174;-84
2021/07/19 02:03:56;;;;;;;15.10;7.90;;;17.50;99.90;;;;;;4021532;29;20202;-84
2021/07/19 02:05:59;;;;;;;12.75;7.28;;;17.50;99.90;;;;;;4021449;29;20227;-84
2021/07/19 02:08:02;;;;;;;10.43;7.63;;;17.40;99.90;;;;;;4006205;29;20186;-84
2021/07/19 02:10:09;;;;;;;9.88;7.30;;;17.40;99.90;;;;;;4021522;29;20186;-84
2021/07/19 02:12:24;;;;;;;12.43;7.45;;;17.50;99.90;;;;;;4007942;29;20186;-84
2021/07/19 02:14:26;;;;;;;11.50;7.60;;;17.60;99.90;;;;;;4021437;29;20406;-83
2021/07/19 02:16:39;;;;;;;11.52;8.13;;;17.70;99.90;;;;;;4021465;29;20209;-84
2021/07/19 02:18:42;;;;;;;11.82;7.30;;;17.80;99.90;;;;;;4021485;29;20326;-84
2021/07/19 02:20:44;;;;;;;12.05;8.45;;;17.80;99.90;;;;;;4036568;29;20185;-84
2021/07/19 02:22:48;;;;;;;11.20;7.75;;;17.80;99.90;;;;;;4021404;29;20173;-84
2021/07/19 02:25:18;;;;;;;13.10;7.65;;;17.90;99.90;;;;;;4021273;29;20202;-84
2021/07/19 02:27:28;;;;;;;16.65;8.70;;;17.90;99.90;;;;;;4006920;29;20205;-84
2021/07/19 02:29:29;;;;;;;12.48;8.68;;;18.00;99.90;;;;;;4024137;29;20260;-84
2021/07/19 02:31:31;;;;;;;11.73;8.10;;;18.10;99.90;;;;;;4024409;29;20222;-84
2021/07/19 02:33:40;;;;;;;13.45;8.20;;;18.00;99.90;;;;;;4024234;29;20196;-84
2021/07/19 02:35:45;;;;;;;14.25;9.13;;;18.10;99.90;;;;;;4009074;29;20179;-84
2021/07/19 02:37:50;;;;;;;11.63;9.00;;;18.10;99.90;;;;;;4024323;29;20197;-85
2021/07/19 02:39:55;;;;;;;12.60;9.02;;;18.10;99.90;;;;;;4009606;29;20193;-84
2021/07/19 02:41:58;;;;;;;14.15;9.00;;;18.10;99.90;;;;;;4009074;29;20581;-84
2021/07/19 02:44:01;;;;;;;12.05;8.68;;;18.20;99.90;;;;;;4024329;29;20198;-84
2021/07/19 02:46:18;;;;;;;15.05;8.02;;;18.10;99.90;;;;;;4024287;29;20186;-84
2021/07/19 02:48:29;;;;;;;11.88;8.85;;;18.00;99.90;;;;;;4024241;29;20277;-84
2021/07/19 02:50:30;;;;;;;12.88;8.75;;;18.00;99.90;;;;;;4024174;29;20570;-84
2021/07/19 02:52:34;;;;;;;10.52;8.07;;;18.00;99.90;;;;;;4024129;29;20726;-84
2021/07/19 02:54:35;;;;;;;10.75;7.78;;;17.90;99.90;;;;;;4024042;29;20600;-84
2021/07/19 02:56:40;;;;;;;22.77;10.07;;;17.80;99.90;;;;;;4025116;29;20210;-84
2021/07/19 02:58:41;;;;;;;12.57;8.65;;;17.70;99.90;;;;;;4023810;29;20170;-84
2021/07/19 03:00:44;;;;;;;12.40;7.97;;;17.70;99.90;;;;;;4008681;29;20181;-84
2021/07/19 03:02:51;;;;;;;14.13;8.77;;;17.60;99.90;;;;;;4024252;29;20223;-84
2021/07/19 03:04:57;;;;;;;13.63;9.60;;;17.40;99.90;;;;;;4008814;29;20681;-84
2021/07/19 03:07:01;;;;;;;14.43;9.32;;;17.20;99.90;;;;;;4024058;29;20177;-84
2021/07/19 03:09:05;;;;;;;18.55;9.65;;;17.20;99.90;;;;;;4025223;29;20175;-84
2021/07/19 03:11:35;;;;;;;13.93;9.45;;;17.30;99.90;;;;;;4023993;29;20576;-84
2021/07/19 03:13:37;;;;;;;13.13;9.38;;;17.40;99.90;;;;;;4023816;29;20182;-84
2021/07/19 03:15:42;;;;;;;17.17;10.10;;;17.50;99.90;;;;;;4023956;29;20671;-84
2021/07/19 03:17:48;;;;;;;13.18;9.90;;;17.50;99.90;;;;;;4008393;29;20286;-84
2021/07/19 03:19:52;;;;;;;14.43;10.20;;;17.50;99.90;;;;;;4008373;29;20210;-84
2021/07/19 03:21:57;;;;;;;14.90;10.38;;;17.60;99.90;;;;;;4008735;29;20175;-84
2021/07/19 03:24:17;;;;;;;15.20;9.68;;;17.60;99.90;;;;;;4023804;29;20559;-84
2021/07/19 03:26:21;;;;;;;13.18;9.88;;;17.50;99.90;;;;;;4023672;29;20174;-84
2021/07/19 03:28:25;;;;;;;15.38;9.75;;;17.50;99.90;;;;;;4008541;29;20187;-85
2021/07/19 03:30:27;;;;;;;18.70;10.63;;;17.70;99.90;;;;;;4024904;29;20202;-84
2021/07/19 03:32:28;;;;;;;11.23;9.63;;;17.70;99.90;;;;;;4023515;29;20182;-84
2021/07/19 03:34:40;;;;;;;12.15;9.82;;;17.70;99.90;;;;;;4009001;29;20203;-84
2021/07/19 03:36:44;;;;;;;17.55;9.60;;;17.60;99.90;;;;;;4023461;29;20225;-84
2021/07/19 03:38:47;;;;;;;11.20;9.48;;;17.60;99.90;;;;;;4008326;29;20291;-84
2021/07/19 03:40:58;;;;;;;11.88;9.80;;;17.60;99.90;;;;;;4024557;29;20182;-85
2021/07/19 03:43:00;;;;;;;14.18;9.60;;;17.60;99.90;;;;;;4023542;29;20181;-85
2021/07/19 03:45:02;;;;;;;12.32;9.30;;;17.70;99.90;;;;;;4023195;29;20549;-85
2021/07/19 03:47:04;;;;;;;17.30;9.13;;;17.70;99.90;;;;;;4008281;29;20183;-85
2021/07/19 03:49:07;;;;;;;11.15;7.78;;;17.80;99.90;;;;;;4008241;29;20624;-84
2021/07/19 03:51:10;;;;;;;11.23;7.82;;;17.80;99.90;;;;;;4008142;29;20178;-84
2021/07/19 03:53:13;;;;;;;16.88;9.18;;;17.80;99.90;;;;;;4008078;29;20568;-84
2021/07/19 03:55:15;;;;;;;18.45;8.10;;;17.80;99.90;;;;;;4007907;29;20195;-84
2021/07/19 03:57:17;;;;;;;20.02;8.57;;;17.70;99.90;;;;;;4007763;29;20211;-84
2021/07/19 03:59:23;;;;;;;16.33;9.07;;;17.60;99.90;;;;;;4007653;29;20216;-85
2021/07/19 04:01:25;;;;;;;13.85;9.85;;;17.50;99.90;;;;;;4023032;29;20233;-85
2021/07/19 04:03:33;;;;;;;12.70;10.02;;;17.30;99.90;;;;;;4023309;29;20175;-84
2021/07/19 04:05:40;;;;;;;15.82;9.63;;;17.40;99.90;;;;;;4023062;29;20202;-85
2021/07/19 04:07:49;;;;;;;15.10;9.77;;;17.40;99.90;;;;;;4008681;29;20651;-84
2021/07/19 04:09:52;;;;;;;17.02;10.45;;;17.30;99.90;;;;;;4022974;29;20174;-85
2021/07/19 04:11:54;;;;;;;16.33;9.88;;;17.30;99.90;;;;;;4023117;29;20185;-84
2021/07/19 04:13:55;;;;;;;14.60;10.57;;;17.30;99.90;;;;;;4007836;29;20175;-84
2021/07/19 04:15:59;;;;;;;14.88;11.98;;;17.40;99.90;;;;;;4008047;29;20274;-85
2021/07/19 04:18:01;;;;;;;17.33;11.52;;;17.80;99.90;;;;;;4007851;29;20183;-84
2021/07/19 04:20:17;;;;;;;15.40;10.80;;;17.80;99.90;;;;;;4023037;29;20302;-84
2021/07/19 04:22:20;;;;;;;15.90;11.88;;;17.60;99.90;;;;;;4022965;29;20539;-84
2021/07/19 04:24:34;;;;;;;20.15;11.13;;;17.60;99.90;;;;;;4009107;29;20734;-85
2021/07/19 04:26:37;;;;;;;21.10;11.35;;;17.60;99.90;;;;;;4007601;29;20191;-84
2021/07/19 04:28:42;;;;;;;15.15;10.45;;;17.80;99.90;;;;;;4022912;29;20675;-84
2021/07/19 04:30:46;;;;;;;17.73;11.60;;;17.70;99.90;;;;;;4007652;29;20230;-84
2021/07/19 04:32:48;;;;;;;18.35;11.13;;;18.10;99.90;;;;;;4022400;29;20639;-84
2021/07/19 04:34:49;;;;;;;19.27;11.85;;;18.40;99.90;;;;;;4007192;29;20198;-84
2021/07/19 04:36:53;;;;;;;20.08;11.88;;;18.50;99.90;;;;;;4022827;29;20218;-84
2021/07/19 04:38:54;;;;;;;20.42;12.38;;;18.50;99.90;;;;;;4007477;29;20175;-84
2021/07/19 04:40:57;;;;;;;22.70;12.63;;;18.90;99.90;;;;;;4007584;29;20190;-84
2021/07/19 04:42:58;;;;;;;22.77;12.50;;;18.90;99.90;;;;;;4022565;29;20174;-84
2021/07/19 04:44:58;;;;;;;18.45;12.13;;;19.10;99.90;;;;;;4022580;29;20567;-84
2021/07/19 04:46:59;;;;;;;19.33;12.15;;;19.10;99.90;;;;;;4007501;29;20167;-84
2021/07/19 04:49:00;;;;;;;18.67;12.18;;;19.00;99.90;;;;;;4007166;29;20213;-83
2021/07/19 04:51:01;;;;;;;18.52;12.05;;;19.10;99.90;;;;;;4006752;29;20179;-84
2021/07/19 04:53:02;;;;;;;18.58;11.80;;;19.10;99.90;;;;;;4022467;29;20229;-84
2021/07/19 04:55:03;;;;;;;17.58;12.48;;;19.00;99.90;;;;;;4007150;29;20191;-84
2021/07/19 04:57:08;;;;;;;19.45;13.07;;;19.00;99.90;;;;;;4022715;29;20188;-84
2021/07/19 04:59:09;;;;;;;22.08;12.25;;;19.00;99.90;;;;;;4022680;29;20182;-83
2021/07/19 05:01:12;;;;;;;18.05;12.60;;;19.00;99.90;;;;;;4007300;29;20183;-83
2021/07/19 05:03:14;;;;;;;18.10;12.85;;;19.00;99.90;;;;;;4007091;29;20214;-83
2021/07/19 05:05:18;;;;;;;19.77;12.75;;;19.00;99.90;;;;;;4007230;29;20203;-84
2021/07/19 05:07:22;;;;;;;21.02;12.65;;;19.00;99.90;;;;;;4007032;29;20571;-84
2021/07/19 05:09:24;;;;;;;20.92;12.50;;;19.00;99.90;;;;;;4007178;29;20179;-83
2021/07/19 05:11:25;;;;;;;20.63;12.80;;;19.00;99.90;;;;;;4022239;29;20627;-85
2021/07/19 05:13:27;;;;;;;18.67;12.52;;;18.90;99.90;;;;;;4007133;29;20258;-83
2021/07/19 05:15:28;;;;;;;19.55;13.18;;;18.80;99.90;;;;;;4006717;29;20191;-84
2021/07/19 05:17:29;;;;;;;22.48;13.32;;;18.90;99.90;;;;;;4022210;29;20189;-84
2021/07/19 05:19:30;;;;;;;21.60;12.45;;;18.90;99.90;;;;;;4006988;29;20175;-84
2021/07/19 05:21:35;;;;;;;17.48;13.13;;;18.90;99.90;;;;;;4022262;29;20211;-84
2021/07/19 05:23:37;;;;;;;21.67;12.32;;;18.80;99.90;;;;;;4021899;29;20547;-84
2021/07/19 05:25:38;;;;;;;19.25;12.85;;;18.80;99.90;;;;;;4022107;29;20246;-84
2021/07/19 05:28:04;;;;;;;20.52;13.13;;;18.80;99.90;;;;;;4022072;29;20222;-83
2021/07/19 05:30:06;;;;;;;23.50;12.98;;;18.80;99.90;;;;;;4018821;29;20650;-83
2021/07/19 05:32:08;;;;;;;23.75;13.77;;;18.70;99.90;;;;;;4021787;29;20175;-83
2021/07/19 05:34:08;;;;;;;20.73;13.07;;;18.50;99.90;;;;;;4021645;29;20699;-83
2021/07/19 05:36:10;;;;;;;21.88;14.23;;;18.40;99.90;;;;;;4006576;29;20215;-83
2021/07/19 05:38:11;;;;;;;19.88;13.20;;;18.30;99.90;;;;;;4006677;29;20214;-83
2021/07/19 05:40:14;;;;;;;23.20;13.85;;;18.20;99.90;;;;;;4021899;29;20767;-83
2021/07/19 05:42:14;;;;;;;19.05;13.63;;;18.30;99.90;;;;;;4021980;29;20238;-84
2021/07/19 05:44:15;;;;;;;22.35;13.20;;;18.30;99.90;;;;;;4021587;29;20672;-82
2021/07/19 05:46:16;;;;;;;25.25;14.20;;;18.30;99.90;;;;;;4006560;29;20711;-83
2021/07/19 05:48:17;;;;;;;18.65;13.23;;;18.20;99.90;;;;;;4021582;29;20229;-83
2021/07/19 05:50:17;;;;;;;18.58;13.20;;;18.20;99.90;;;;;;4021678;29;20193;-83
2021/07/19 05:52:18;;;;;;;24.40;13.77;;;18.30;99.90;;;;;;4006560;29;20178;-83
2021/07/19 05:54:19;;;;;;;23.88;13.75;;;18.40;99.90;;;;;;4021583;29;20205;-83
2021/07/19 05:56:19;;;;;;;20.00;13.13;;;18.50;99.90;;;;;;4006311;29;20545;-83
2021/07/19 05:58:20;;;;;;;22.98;13.10;;;18.60;99.90;;;;;;4021592;29;20673;-83
2021/07/19 06:00:21;;;;;;;20.90;13.45;;;18.60;99.90;;;;;;4021644;29;20235;-83
2021/07/19 06:02:25;;;;;;;22.45;14.60;;;18.70;99.90;;;;;;4005863;29;20350;-83
2021/07/19 06:04:26;;;;;;;20.77;13.15;;;18.70;99.90;;;;;;4021248;29;20204;-83
2021/07/19 06:06:27;;;;;;;22.05;13.52;;;18.80;99.90;;;;;;4021686;29;20292;-83
2021/07/19 06:08:28;;;;;;;21.75;13.52;;;18.80;99.90;;;;;;4021609;29;20186;-83
2021/07/19 06:10:28;;;;;;;22.05;13.25;;;18.90;99.90;;;;;;4021578;29;20213;-82
2021/07/19 06:12:29;;;;;;;23.80;14.13;;;19.20;99.90;;;;;;4021360;29;20274;-83
2021/07/19 06:14:30;;;;;;;23.52;13.43;;;19.30;99.90;;;;;;4022314;29;20694;-83
2021/07/19 06:16:30;;;;;;;21.58;13.90;;;19.30;99.90;;;;;;4005952;29;20307;-83
2021/07/19 06:18:31;;;;;;;20.85;13.77;;;19.30;99.90;;;;;;4021386;29;20186;-83
2021/07/19 06:20:32;;;;;;;24.33;13.82;;;19.40;99.90;;;;;;4021360;29;20178;-83
2021/07/19 06:22:34;;;;;;;23.15;13.23;;;19.50;99.90;;;;;;4022520;29;20182;-84
2021/07/19 06:24:35;;;;;;;17.85;12.65;;;19.60;99.90;;;;;;4021142;29;20221;-83
2021/07/19 06:26:35;;;;;;;18.05;11.07;;;19.40;99.90;;;;;;4021004;29;20206;-83
2021/07/19 06:28:36;;;;;;;19.13;12.38;;;19.30;99.90;;;;;;4020967;29;20186;-84
2021/07/19 06:30:37;;;;;;;16.38;11.90;;;19.40;99.90;;;;;;4021258;29;20257;-84
2021/07/19 06:32:40;;;;;;;14.38;11.48;;;19.60;99.90;;;;;;4006209;29;20189;-83
2021/07/19 06:34:40;;;;;;;16.33;11.65;;;19.70;99.90;;;;;;4021206;29;20285;-84
2021/07/19 06:36:41;;;;;;;20.58;11.30;;;19.90;99.90;;;;;;4021145;29;20174;-84
2021/07/19 06:38:42;;;;;;;17.30;11.10;;;19.80;99.90;;;;;;4021342;29;20265;-83
2021/07/19 06:40:42;;;;;;;14.05;10.75;;;19.90;99.90;;;;;;4021260;29;20174;-83
2021/07/19 06:42:43;;;;;;;14.95;10.55;;;19.90;99.90;;;;;;4021229;29;20213;-84
2021/07/19 06:44:44;;;;;;;18.27;10.70;;;19.80;99.90;;;;;;4021174;29;20240;-83
2021/07/19 06:46:45;;;;;;;25.88;12.27;;;20.10;99.90;;;;;;4021239;29;20222;-84
2021/07/19 06:48:45;;;;;;;15.88;10.65;;;20.50;99.90;;;;;;4006006;29;20653;-86
2021/07/19 06:50:46;;;;;;;19.80;10.70;;;20.80;99.90;;;;;;4005612;29;20194;-83
2021/07/19 06:52:47;;;;;;;16.80;11.98;;;21.10;99.90;;;;;;4021179;29;20170;-83
2021/07/19 06:54:47;;;;;;;14.50;11.25;;;21.30;99.90;;;;;;4005886;29;20210;-83
2021/07/19 06:56:48;;;;;;;13.57;10.90;;;21.00;99.90;;;;;;4006066;29;20669;-83
2021/07/19 06:58:49;;;;;;;16.20;10.95;;;20.40;99.90;;;;;;4021054;29;20183;-83
2021/07/19 07:00:50;;;;;;;16.27;10.75;;;20.60;99.90;;;;;;4021052;29;20261;-83
2021/07/19 07:02:51;;;;;;;16.80;10.77;;;20.60;99.90;;;;;;4005938;29;20230;-83
2021/07/19 07:04:51;;;;;;;20.38;11.25;;;21.10;99.90;;;;;;4022113;29;20273;-83
2021/07/19 07:06:52;;;;;;;18.30;11.10;;;21.30;99.90;;;;;;4021158;29;20222;-83
2021/07/19 07:08:55;;;;;;;16.05;11.68;;;21.20;99.90;;;;;;4022116;29;20577;-83
2021/07/19 07:10:58;;;;;;;16.17;11.65;;;21.20;99.90;;;;;;4020825;29;20265;-90
2021/07/19 07:12:58;;;;;;;17.27;10.93;;;21.10;99.90;;;;;;4022267;29;20171;-83
2021/07/19 07:14:59;;;;;;;18.90;10.43;;;21.00;99.90;;;;;;4022785;29;20209;-83
2021/07/19 07:17:00;;;;;;;16.45;9.95;;;20.70;99.90;;;;;;4008571;29;20185;-83
2021/07/19 07:19:01;;;;;;;18.77;10.05;;;20.80;99.90;;;;;;4008539;29;20186;-83
2021/07/19 07:21:02;;;;;;;14.25;9.10;;;21.30;99.90;;;;;;4023684;29;20261;-83
2021/07/19 07:23:04;;;;;;;17.23;8.43;;;22.50;99.90;;;;;;4023668;29;20182;-83
2021/07/19 07:25:06;;;;;;;12.43;7.15;;;23.60;99.90;;;;;;4008159;29;20237;-83
2021/07/19 07:27:11;;;;;;;13.00;7.75;;;25.30;99.90;;;;;;4008227;29;20222;-83
2021/07/19 07:29:11;;;;;;;11.82;8.40;;;25.80;99.90;;;;;;4008176;29;20230;-84
2021/07/19 07:31:12;;;;;;;16.75;8.15;;;26.30;99.90;;;;;;4023653;29;20202;-83
2021/07/19 07:33:13;;;;;;;14.13;8.25;;;27.00;99.90;;;;;;4008589;29;20211;-90
2021/07/19 07:35:14;;;;;;;12.27;7.50;;;27.50;99.90;;;;;;4023497;29;20711;-83
2021/07/19 07:37:15;;;;;;;11.63;8.13;;;27.50;99.90;;;;;;4023678;29;20180;-83
2021/07/19 07:39:16;;;;;;;20.38;8.95;;;27.80;99.90;;;;;;4023563;29;20174;-96
2021/07/19 07:41:18;;;;;;;12.90;7.38;;;28.40;99.90;;;;;;4024095;29;20182;-93
2021/07/19 07:43:19;;;;;;;13.07;6.72;;;28.60;99.90;;;;;;4008109;29;20179;-84
2021/07/19 07:45:19;;;;;;;14.88;7.85;;;28.50;99.90;;;;;;4023586;29;20686;-84
2021/07/19 07:47:20;;;;;;;16.65;7.75;;;28.40;99.90;;;;;;4008019;29;20222;-83
2021/07/19 07:49:21;;;;;;;13.90;7.70;;;28.50;99.90;;;;;;4023175;29;20204;-84
2021/07/19 07:51:22;;;;;;;12.35;7.10;;;28.20;99.90;;;;;;4023017;29;20249;-84
2021/07/19 07:53:23;;;;;;;9.82;7.00;;;28.70;99.90;;;;;;4023227;29;20174;-83
2021/07/19 07:55:23;;;;;;;12.50;6.75;;;28.90;99.90;;;;;;4023177;29;20198;-83
2021/07/19 07:57:24;;;;;;;13.00;7.50;;;28.80;99.90;;;;;;4008030;29;20186;-83
2021/07/19 07:59:25;;;;;;;12.85;6.97;;;28.30;99.90;;;;;;4023081;29;20178;-83
2021/07/19 08:01:26;;;;;;;16.30;6.78;;;28.10;99.90;;;;;;4024437;29;20179;-83
2021/07/19 08:03:27;;;;;;;10.95;7.03;;;27.70;99.90;;;;;;4022968;29;20182;-83
2021/07/19 08:05:28;;;;;;;11.65;6.78;;;27.80;99.90;;;;;;4022775;29;20212;-84
2021/07/19 08:07:28;;;;;;;14.40;7.03;;;27.80;99.90;;;;;;4023071;29;20214;-84
2021/07/19 08:09:30;;;;;;;9.70;6.35;;;28.40;99.90;;;;;;4022975;29;20178;-83
2021/07/19 08:11:30;;;;;;;10.43;5.78;;;28.50;99.90;;;;;;4022881;29;20270;-83
2021/07/19 08:13:31;;;;;;;10.63;5.28;;;27.60;99.90;;;;;;4023029;29;20584;-84
2021/07/19 08:15:33;;;;;;;11.63;5.25;;;27.40;99.90;;;;;;4022789;29;20258;-83
2021/07/19 08:17:34;;;;;;;8.73;5.82;;;27.20;99.90;;;;;;4007708;29;20690;-84
2021/07/19 08:19:35;;;;;;;12.05;5.45;;;26.80;99.90;;;;;;4022948;29;20178;-84
2021/07/19 08:21:37;;;;;;;9.25;5.32;;;27.50;99.90;;;;;;4024094;29;20258;-84
2021/07/19 08:23:38;;;;;;;11.15;5.43;;;28.10;99.90;;;;;;4022929;29;20167;-84
2021/07/19 08:25:39;;;;;;;13.02;5.13;;;28.70;99.90;;;;;;4006634;29;20224;-84
2021/07/19 08:27:40;;;;;;;11.63;5.30;;;28.20;99.90;;;;;;4022608;29;20229;-84
2021/07/19 08:29:41;;;;;;;11.80;5.82;;;27.90;99.90;;;;;;4007429;29;20174;-92
2021/07/19 08:31:45;;;;;;;11.93;5.22;;;28.20;99.90;;;;;;4023904;29;20179;-84
2021/07/19 08:33:46;;;;;;;9.75;5.35;;;27.10;99.90;;;;;;4023186;29;20205;-83
2021/07/19 08:35:46;;;;;;;9.60;5.20;;;27.80;99.90;;;;;;4022624;29;20674;-83
2021/07/19 08:37:47;;;;;;;7.38;4.03;;;28.20;99.90;;;;;;4007239;29;20183;-82
2021/07/19 08:39:48;;;;;;;14.25;5.60;;;27.80;99.90;;;;;;4007568;29;20175;-84
2021/07/19 08:41:49;;;;;;;9.98;4.43;;;27.80;99.90;;;;;;4022478;29;20699;-83
2021/07/19 08:43:50;;;;;;;10.63;4.60;;;27.60;99.90;;;;;;4022297;29;20257;-83
2021/07/19 08:45:51;;;;;;;8.75;4.60;;;27.50;99.90;;;;;;4022615;29;20194;-83
2021/07/19 08:47:52;;;;;;;15.13;4.97;;;27.50;99.90;;;;;;4007091;29;20317;-83
2021/07/19 08:49:53;;;;;;;9.30;4.40;;;27.70;99.90;;;;;;4007208;29;20175;-83
2021/07/19 08:51:54;;;;;;;13.25;4.78;;;28.00;99.90;;;;;;4007169;29;20280;-84
2021/07/19 08:54:01;;;;;;;9.35;3.75;;;27.80;99.90;;;;;;4022547;29;20544;-84
2021/07/19 08:56:02;;;;;;;7.00;3.47;;;28.30;99.90;;;;;;4038300;29;20175;-83
2021/07/19 08:58:04;;;;;;;7.18;3.10;;;28.50;99.90;;;;;;4022066;29;20179;-83
2021/07/19 09:00:09;;;;;;;6.38;3.65;;;28.20;99.90;;;;;;4037612;29;20623;-93
2021/07/19 09:02:10;;;;;;;6.57;3.58;;;27.60;99.90;;;;;;4022355;29;20250;-83
2021/07/19 09:04:17;;;;;;;9.55;3.70;;;27.20;99.90;;;;;;4023540;29;20201;-89
2021/07/19 09:06:18;;;;;;;8.75;3.42;;;26.90;99.90;;;;;;4007081;29;20214;-85
2021/07/19 09:08:18;;;;;;;7.75;3.75;;;27.20;99.90;;;;;;4022583;29;20682;-83
2021/07/19 09:10:25;;;;;;;6.90;3.55;;;26.70;99.90;;;;;;4022162;29;20533;-83
2021/07/19 09:12:31;;;;;;;9.93;4.18;;;26.70;99.90;;;;;;4006701;29;20191;-83
2021/07/19 09:14:32;;;;;;;10.80;3.88;;;26.60;99.90;;;;;;4006367;29;20207;-83
2021/07/19 09:16:43;;;;;;;9.43;3.90;;;26.80;99.90;;;;;;4021931;29;20699;-84
2021/07/19 09:18:44;;;;;;;6.55;3.53;;;27.10;99.90;;;;;;4006657;29;20549;-84
2021/07/19 09:20:44;;;;;;;8.75;4.10;;;27.20;99.90;;;;;;4021890;29;20196;-83
2021/07/19 09:22:52;;;;;;;7.03;3.55;;;27.50;99.90;;;;;;4006499;29;20186;-83
2021/07/19 09:25:11;;;;;;;6.13;3.38;;;27.90;99.90;;;;;;4021748;29;20194;-83
2021/07/19 09:27:17;;;;;;;9.05;3.10;;;28.30;99.90;;;;;;4021807;29;20217;-84
2021/07/19 09:29:19;;;;;;;5.40;3.17;;;28.10;99.90;;;;;;4021941;29;20178;-86
2021/07/19 09:31:40;;;;;;;7.70;3.40;;;27.90;99.90;;;;;;4023091;29;20257;-84
2021/07/19 09:33:42;;;;;;;6.90;3.50;;;27.20;99.90;;;;;;4006078;29;20176;-84
2021/07/19 09:35:46;;;;;;;8.85;3.78;;;26.60;99.90;;;;;;4006189;29;20267;-84
2021/07/19 09:37:47;;;;;;;9.32;3.55;;;26.60;99.90;;;;;;4021604;29;20233;-84
2021/07/19 09:39:50;;;;;;;5.75;3.03;;;27.00;99.90;;;;;;4006617;29;20189;-84
2021/07/19 09:41:51;;;;;;;10.80;3.78;;;28.10;99.90;;;;;;4021688;29;20266;-83
2021/07/19 09:43:51;;;;;;;7.47;3.60;;;28.20;99.90;;;;;;4023047;29;20636;-83
2021/07/19 09:46:08;;;;;;;5.68;3.05;;;27.70;99.90;;;;;;4021649;29;20584;-83
2021/07/19 09:48:09;;;;;;;7.68;3.50;;;28.20;99.90;;;;;;4006284;29;20198;-83
2021/07/19 09:50:13;;;;;;;7.22;3.33;;;28.50;99.90;;;;;;4006336;29;20183;-83
2021/07/19 09:52:14;;;;;;;7.13;3.50;;;28.90;99.90;;;;;;4021479;29;20547;-83
2021/07/19 09:54:14;;;;;;;7.25;3.60;;;29.00;99.90;;;;;;4021532;29;20218;-83
2021/07/19 09:56:21;;;;;;;7.53;3.05;;;28.90;99.90;;;;;;4006217;29;20544;-82
2021/07/19 09:58:22;;;;;;;7.40;3.08;;;29.10;99.90;;;;;;4022742;29;20181;-82
2021/07/19 10:00:24;;;;;;;8.27;3.33;;;28.70;99.90;;;;;;4021538;29;20270;-83
2021/07/19 10:02:35;;;;;;;7.65;3.60;;;28.40;99.90;;;;;;4005996;29;20214;-83
2021/07/19 10:04:42;;;;;;;7.35;3.08;;;28.50;99.90;;;;;;4021420;29;20706;-83
2021/07/19 10:06:46;;;;;;;10.43;3.40;;;28.80;99.90;;;;;;4023650;29;20241;-85
2021/07/19 10:08:58;;;;;;;9.52;3.15;;;29.00;99.90;;;;;;4021578;29;20190;-86
2021/07/19 10:10:59;;;;;;;8.73;3.20;;;29.00;99.90;;;;;;4021499;29;20659;-85
2021/07/19 10:13:01;;;;;;;6.80;2.95;;;29.20;99.90;;;;;;4006503;29;20195;-85
2021/07/19 10:15:04;;;;;;;5.90;2.85;;;28.60;99.90;;;;;;4021529;29;20218;-86
2021/07/19 10:17:06;;;;;;;7.10;3.58;;;27.90;99.90;;;;;;4022612;29;20243;-86
2021/07/19 10:19:07;;;;;;;7.85;3.40;;;28.00;99.90;;;;;;4021452;29;20250;-87
2021/07/19 10:21:08;;;;;;;7.45;2.95;;;28.60;99.90;;;;;;4022782;29;20185;-86
2021/07/19 10:23:13;;;;;;;8.15;3.28;;;28.60;99.90;;;;;;4021574;29;20174;-86
2021/07/19 10:25:15;;;;;;;9.02;2.97;;;28.00;99.90;;;;;;4021316;29;20563;-85
2021/07/19 10:27:21;;;;;;;7.57;3.28;;;28.10;99.90;;;;;;4021500;29;20682;-86
2021/07/19 10:29:22;;;;;;;7.07;3.33;;;27.80;99.90;;;;;;4022653;29;20189;-86
2021/07/19 10:31:24;;;;;;;8.18;2.63;;;27.60;99.90;;;;;;4021557;29;20563;-92
2021/07/19 10:33:25;;;;;;;5.78;2.95;;;27.30;99.90;;;;;;4006324;29;20220;-85